Get Adobe Flash player

РУС

ENG

 
  Pireps - S7
 

Рейс SBIS7 2

  • Выполнял: Andrew Vyunov
  • Аэропорт отправления: Nizhny Novgorod (UWGG)
  • Аэропорт назначения: Domodedovo Airport (UUDD)
  • Тип ВС: A319-112 (VP-BHJ)
  • Время полёта: 00.59
  • Дата полёта: 22.05.2018
  • Маршрут: RP R480 CW R489 MF MF1D GEKLA
  • Статус: Одобрен

Детали полёта
Gross Revenue:
(113 load / $ 500.00 per unit
$ 56,500.00
Fuel Cost:
(13702 fuel used @ 5.1 / unit)
$ 69,880.20


Дополнительная информация о полёте:

Лог

Aircraft Used in flight is Airbus A320-214 CFM Sharklets Airbus house color
14:58 Boarding
14:58 Brakes are On
15:01 Strobe Lights ON at 260 AGL
15:01 Beacon Lights ON at 260 AGL
15:01 Navigation Lights ON at 260 AGL
15:02 Engine 1 Started
15:02 Engine 2 Started
15:02 Pushing back
15:03 Boarding
15:04 Taxi Lights ON at 260 AGL
15:04 Brakes are Released
15:08Flaps 5 Selected at 260ft and 10kts
15:11 You Took off @ 170 Knots and Flaps at Position 5
Departure Weather
UWGG 221130Z 15004MPS 110V190 CAVOK 23/01 Q1029 R18R/090070 NOSIGrn
15:11 Landing Lights ON at 320 AGL
15:11 Landing Gear Up @ 172 Knots and 770 Feet
15:11Flaps 4 Selected at 1530ft and 168kts
15:12Flaps 3 Selected at 3050ft and 174kts
15:12 Taxi Lights OFF at 3990 AGL
15:12 Landing Lights OFF at 4010 AGL
15:12Flaps 2 Selected at 4150ft and 180kts
15:12Flaps 1 Selected at 4630ft and 185kts
15:12Flaps Retracted at 5050ft and 192kts
15:45 You exceeded maximum bank angle
15:48Flaps 1 Selected at 9380ft and 226kts
15:48Flaps 2 Selected at 7690ft and 228kts
15:49Flaps 3 Selected at 6290ft and 217kts
15:50 Landing Lights ON at 3180 AGL
15:50Flaps 5 Selected at 2400ft and 186kts
15:51 Landing Gear Down @ 189 Knots and 2160 Feet
15:53 You Landed @ 182 Knots and with -250 Vertical Speed
Arrival Weather
UUDD 221130Z 13006MPS 9999 FEW048 20/09 Q1026 R88/010095 NOSIGrn
15:54 Taxiing to gate
15:54 Landing Lights OFF at 600 AGL
15:54 Taxi Lights ON at 600 AGL
15:57 Brakes are On
15:58 Taxi Lights OFF at 600 AGL
15:58 Engine 1 Stoped
15:58 Engine 2 Stoped
Pirep logged with S7 Tracking 1.0.0.13


!!! Превышение допустимого значения вертикальной скорости при посадке: -5%


Общая оценка полета : 95%




Route Map



 
 
   
 
Новости

26.04.2018 - Полеты в X-PLANE

Наш клиент S7 Pad поддерживает полеты как в MFSX, Prepar3d V4, так и в X-PLANE 10 и 11 версиях!
На нашем сайте в разреде загруки есть плагин XPUIPIC for X-plane.
Приятных Вам полетов и мягких посадок!

   
 
Авторизация






Регистрация

Восстановить пароль?

Мы в соц. сетях

      



   
  TeamSpeak3 ts.va-s7.ru


   
 

   
 



   
 


Яндекс.Метрика

www.va-s7.ru 2011-2018
Все права защищены.



Минуточку внимания!
Мы не имеем отношения к торговым маркам "S7" и "Globus" и их представителям.
Эмблемы на сайте являются собственностью соответствующих компаний.

аэронавигационная метеорологическая и любая другая информация с данного ресурса ни в коем случае не должна использоваться для реальных полетов